Time;durP1;ratioP1;P1;durP2;ratioP2;P2;SDS_P1;SDS_P2;PMS_P1;PMS_P2;Temp;Humidity;BMP_temperature;BMP_pressure;BME280_temperature;BME280_humidity;BME280_pressure;Samples;Min_cycle;Max_cycle;Signal;HPM_P1;HPM_P2
2022/07/25 00:01:25;;;;;;;7.37;6.63;;;20.30;99.90;;;;;;5050736;28;20860;-72
2022/07/25 00:03:52;;;;;;;7.20;6.50;;;20.30;99.90;;;;;;5051280;28;20471;-72
2022/07/25 00:06:20;;;;;;;13.63;7.27;;;20.30;99.90;;;;;;5050916;28;20502;-72
2022/07/25 00:08:47;;;;;;;7.87;7.17;;;20.20;99.90;;;;;;5051164;28;20463;-72
2022/07/25 00:11:13;;;;;;;8.43;7.53;;;20.20;99.90;;;;;;5050662;28;20464;-72
2022/07/25 00:13:40;;;;;;;7.67;6.60;;;20.20;99.90;;;;;;5051183;28;20468;-72
2022/07/25 00:16:07;;;;;;;8.70;7.80;;;20.10;99.90;;;;;;5050911;28;20481;-72
2022/07/25 00:18:34;;;;;;;7.80;7.00;;;20.10;99.90;;;;;;5051199;28;20847;-72
2022/07/25 00:21:00;;;;;;;9.40;7.40;;;20.10;99.90;;;;;;5050499;28;20489;-71
2022/07/25 00:23:28;;;;;;;8.00;7.30;;;20.00;99.90;;;;;;5050926;28;20468;-72
2022/07/25 00:25:55;;;;;;;7.03;6.10;;;20.00;99.90;;;;;;5050898;28;20476;-72
2022/07/25 00:28:22;;;;;;;8.27;7.43;;;20.00;99.90;;;;;;5050529;28;21033;-71
2022/07/25 00:30:48;;;;;;;7.73;7.03;;;20.00;99.90;;;;;;5050543;28;20487;-72
2022/07/25 00:33:15;;;;;;;11.33;8.40;;;19.90;99.90;;;;;;5050619;28;21055;-72
2022/07/25 00:35:42;;;;;;;7.33;6.60;;;19.90;99.90;;;;;;5050614;28;21261;-72
2022/07/25 00:38:08;;;;;;;9.63;7.83;;;19.90;99.90;;;;;;5050515;28;20464;-71
2022/07/25 00:40:36;;;;;;;8.70;7.80;;;19.90;99.90;;;;;;5050184;28;20461;-71
2022/07/25 00:43:03;;;;;;;8.77;7.87;;;19.80;99.90;;;;;;5050447;28;20457;-72
2022/07/25 00:45:30;;;;;;;7.80;7.00;;;19.80;99.90;;;;;;5050719;28;20848;-71
2022/07/25 00:47:56;;;;;;;7.47;6.77;;;19.80;99.90;;;;;;5049452;28;20488;-72
2022/07/25 00:50:23;;;;;;;7.73;6.77;;;19.80;99.90;;;;;;5049739;28;20471;-71
2022/07/25 00:52:50;;;;;;;7.47;6.67;;;19.80;99.90;;;;;;5050720;28;20487;-71
2022/07/25 00:55:17;;;;;;;7.40;6.60;;;19.80;99.90;;;;;;5050315;28;20487;-72
2022/07/25 00:57:45;;;;;;;7.63;6.93;;;19.70;99.90;;;;;;5050670;28;20870;-71
2022/07/25 01:00:15;;;;;;;7.83;7.03;;;19.70;99.90;;;;;;5049600;28;20467;-71
2022/07/25 01:02:42;;;;;;;9.70;6.87;;;19.70;99.90;;;;;;5050328;28;20460;-72
2022/07/25 01:05:10;;;;;;;8.17;7.07;;;19.60;99.90;;;;;;5050202;28;20487;-72
2022/07/25 01:07:38;;;;;;;8.40;7.60;;;19.60;99.90;;;;;;5050368;28;20852;-71
2022/07/25 01:10:06;;;;;;;7.40;6.60;;;19.60;99.90;;;;;;5049435;28;20464;-71
2022/07/25 01:12:44;;;;;;;7.50;6.80;;;19.50;99.90;;;;;;5050389;28;20467;-72
2022/07/25 01:15:11;;;;;;;7.33;6.63;;;19.50;99.90;;;;;;5050088;28;20487;-72
2022/07/25 01:17:38;;;;;;;8.63;6.83;;;19.50;99.90;;;;;;5050309;28;20475;-72
2022/07/25 01:20:05;;;;;;;8.23;7.30;;;19.40;99.90;;;;;;5049610;28;20835;-72
2022/07/25 01:22:33;;;;;;;7.73;7.03;;;19.40;99.90;;;;;;5050296;28;20467;-72
2022/07/25 01:25:00;;;;;;;7.60;6.63;;;19.40;99.90;;;;;;5049931;28;20470;-72
2022/07/25 01:27:27;;;;;;;7.10;6.40;;;19.40;99.90;;;;;;5050017;28;21007;-72
2022/07/25 01:29:53;;;;;;;7.23;5.67;;;19.40;99.90;;;;;;5050432;28;20646;-72
2022/07/25 01:32:20;;;;;;;8.20;7.40;;;19.40;99.90;;;;;;5050674;28;20475;-72
2022/07/25 01:34:47;;;;;;;7.53;6.30;;;19.40;99.90;;;;;;5049765;28;20466;-72
2022/07/25 01:37:13;;;;;;;7.70;7.03;;;19.30;99.90;;;;;;5050049;28;20463;-72
2022/07/25 01:39:41;;;;;;;6.40;5.80;;;19.30;99.90;;;;;;5049618;28;20859;-72
2022/07/25 01:42:08;;;;;;;7.10;6.40;;;19.30;99.90;;;;;;5050165;28;20471;-72
2022/07/25 01:44:34;;;;;;;6.67;6.00;;;19.30;99.90;;;;;;5049745;28;20468;-72
2022/07/25 01:47:01;;;;;;;7.90;7.10;;;19.30;99.90;;;;;;5049736;28;20489;-71
2022/07/25 01:49:28;;;;;;;8.20;7.33;;;19.30;99.90;;;;;;5049271;28;20467;-72
2022/07/25 01:51:55;;;;;;;7.57;6.27;;;19.30;99.90;;;;;;5050144;28;20471;-72
2022/07/25 01:54:21;;;;;;;7.30;6.60;;;19.20;99.90;;;;;;5049719;28;21015;-72
2022/07/25 01:56:49;;;;;;;8.70;6.93;;;19.20;99.90;;;;;;5050085;28;20836;-72
2022/07/25 01:59:16;;;;;;;7.20;6.50;;;19.20;99.90;;;;;;5051008;28;20464;-72
2022/07/25 02:01:43;;;;;;;7.53;6.73;;;19.20;99.90;;;;;;5053646;28;20907;-72
2022/07/25 02:04:10;;;;;;;7.40;6.70;;;19.20;99.90;;;;;;5053463;28;20464;-72
2022/07/25 02:06:36;;;;;;;7.67;6.97;;;19.20;99.90;;;;;;5053387;28;20487;-71
2022/07/25 02:09:04;;;;;;;8.20;6.63;;;19.10;99.90;;;;;;5053119;28;21005;-71
2022/07/25 02:11:31;;;;;;;7.80;6.10;;;19.10;99.90;;;;;;5052935;28;20460;-70
2022/07/25 02:13:59;;;;;;;7.43;6.68;;;19.10;99.90;;;;;;5053255;28;20466;-69
2022/07/25 02:16:26;;;;;;;7.53;6.73;;;19.10;99.90;;;;;;5053074;28;21017;-70
2022/07/25 02:18:52;;;;;;;7.90;7.10;;;19.00;99.90;;;;;;5053271;28;20467;-71
2022/07/25 02:21:19;;;;;;;7.97;6.83;;;19.00;99.90;;;;;;5052540;28;20467;-71
2022/07/25 02:23:46;;;;;;;7.47;6.70;;;19.00;99.90;;;;;;5053265;28;20460;-71
2022/07/25 02:26:14;;;;;;;7.07;6.37;;;19.00;99.90;;;;;;5052912;28;20491;-70
2022/07/25 02:28:41;;;;;;;10.20;7.13;;;19.00;99.90;;;;;;5052986;28;20495;-70
2022/07/25 02:31:09;;;;;;;8.03;6.93;;;19.00;99.90;;;;;;5052348;28;20964;-70
2022/07/25 02:33:36;;;;;;;8.27;6.70;;;18.90;99.90;;;;;;5053061;28;20468;-70
2022/07/25 02:36:03;;;;;;;7.63;6.93;;;18.90;99.90;;;;;;5052742;28;20891;-70
2022/07/25 02:38:29;;;;;;;7.43;6.60;;;18.90;99.90;;;;;;5052750;28;20463;-69
2022/07/25 02:40:56;;;;;;;7.60;6.27;;;18.90;99.90;;;;;;5052327;28;20978;-70
2022/07/25 02:43:23;;;;;;;8.60;7.10;;;18.90;99.90;;;;;;5052880;28;20466;-69
2022/07/25 02:45:50;;;;;;;7.23;6.50;;;18.80;99.90;;;;;;5052706;28;20487;-70
2022/07/25 02:48:18;;;;;;;8.90;6.33;;;18.80;99.90;;;;;;5052374;28;20480;-70
2022/07/25 02:50:45;;;;;;;8.03;7.20;;;18.70;99.90;;;;;;5052164;28;20831;-70
2022/07/25 02:53:11;;;;;;;7.27;6.50;;;18.70;99.90;;;;;;5052647;28;20953;-70
2022/07/25 02:55:38;;;;;;;6.03;5.43;;;18.70;99.90;;;;;;5052500;28;20480;-70
2022/07/25 02:58:05;;;;;;;7.80;7.00;;;18.70;99.90;;;;;;5052511;28;20467;-71
2022/07/25 03:00:31;;;;;;;7.30;6.70;;;18.70;99.90;;;;;;5051990;28;20460;-70
2022/07/25 03:02:58;;;;;;;7.90;6.87;;;18.60;99.90;;;;;;5052405;28;20491;-71
2022/07/25 03:05:26;;;;;;;6.57;5.63;;;18.60;99.90;;;;;;5052414;28;20491;-70
2022/07/25 03:07:53;;;;;;;7.07;6.30;;;18.60;99.90;;;;;;5052319;28;20483;-70
2022/07/25 03:10:19;;;;;;;6.77;6.17;;;18.60;99.90;;;;;;5050655;28;20884;-70
2022/07/25 03:12:46;;;;;;;7.13;6.43;;;18.60;99.90;;;;;;5052363;28;20472;-70
2022/07/25 03:15:14;;;;;;;9.67;7.07;;;18.50;99.90;;;;;;5051902;28;20484;-70
2022/07/25 03:17:41;;;;;;;9.97;6.77;;;18.50;99.90;;;;;;5052235;28;20460;-70
2022/07/25 03:20:09;;;;;;;7.60;6.80;;;18.50;99.90;;;;;;5051412;28;20499;-70
2022/07/25 03:22:38;;;;;;;6.33;5.73;;;18.50;99.90;;;;;;5052124;28;20467;-71
2022/07/25 03:25:05;;;;;;;7.77;6.97;;;18.50;99.90;;;;;;5051819;28;20460;-70
2022/07/25 03:27:33;;;;;;;7.37;6.67;;;18.50;99.90;;;;;;5051977;28;20471;-70
2022/07/25 03:29:59;;;;;;;7.83;7.13;;;18.50;99.90;;;;;;5051258;28;20464;-71
2022/07/25 03:32:26;;;;;;;7.83;6.90;;;18.50;99.90;;;;;;5047925;28;20460;-71
2022/07/25 03:34:53;;;;;;;7.50;6.70;;;18.40;99.90;;;;;;5022748;28;20468;-71
2022/07/25 03:37:19;;;;;;;7.70;6.90;;;18.40;99.90;;;;;;5022529;28;20982;-71
2022/07/25 03:39:48;;;;;;;7.30;6.60;;;18.40;99.90;;;;;;5021516;28;20472;-71
2022/07/25 03:42:14;;;;;;;7.03;6.33;;;18.30;99.90;;;;;;5019465;28;20470;-71
2022/07/25 03:44:41;;;;;;;7.90;7.10;;;18.30;99.90;;;;;;5021943;28;20457;-72
2022/07/25 03:47:08;;;;;;;6.87;5.90;;;18.20;99.90;;;;;;5021645;28;20856;-71
2022/07/25 03:49:34;;;;;;;7.80;7.10;;;18.20;99.90;;;;;;5019873;28;20471;-70
2022/07/25 03:52:01;;;;;;;8.17;7.37;;;18.20;99.90;;;;;;5023208;28;20680;-71
2022/07/25 03:54:28;;;;;;;7.57;6.40;;;18.20;99.90;;;;;;5030975;28;20465;-71
2022/07/25 03:56:56;;;;;;;7.13;6.43;;;18.20;99.90;;;;;;5030518;28;20481;-70
2022/07/25 03:59:23;;;;;;;7.63;6.83;;;18.10;99.90;;;;;;5013670;28;20450;-70
2022/07/25 04:01:50;;;;;;;7.50;6.70;;;18.10;99.90;;;;;;5028221;28;20456;-71
2022/07/25 04:04:18;;;;;;;7.90;6.50;;;18.10;99.90;;;;;;5025303;28;20458;-71
2022/07/25 04:06:45;;;;;;;9.80;7.77;;;18.10;99.90;;;;;;5020149;28;20903;-71
2022/07/25 04:09:12;;;;;;;7.87;6.90;;;18.10;99.90;;;;;;5021316;28;20481;-71
2022/07/25 04:11:40;;;;;;;7.50;6.80;;;18.10;99.90;;;;;;5017808;28;20553;-71
2022/07/25 04:14:08;;;;;;;8.27;7.37;;;18.00;99.90;;;;;;5019228;28;20458;-70
2022/07/25 04:16:34;;;;;;;9.90;7.37;;;18.00;99.90;;;;;;5020515;28;20477;-70
2022/07/25 04:19:01;;;;;;;8.80;6.70;;;18.00;99.90;;;;;;5020711;28;20449;-70
2022/07/25 04:21:28;;;;;;;7.30;6.37;;;18.00;99.90;;;;;;5021312;28;20457;-70
2022/07/25 04:23:55;;;;;;;7.30;6.60;;;18.00;99.90;;;;;;5020132;28;20557;-70
2022/07/25 04:26:22;;;;;;;8.50;7.17;;;18.00;99.90;;;;;;5020190;28;20480;-70
2022/07/25 04:28:48;;;;;;;7.40;6.47;;;18.10;99.90;;;;;;5015238;28;20480;-70
2022/07/25 04:31:17;;;;;;;8.00;6.87;;;18.10;99.90;;;;;;5024808;28;20537;-70
2022/07/25 04:33:43;;;;;;;7.07;6.13;;;18.10;99.90;;;;;;5031084;28;20705;-70
2022/07/25 04:36:10;;;;;;;8.40;6.57;;;18.20;99.90;;;;;;5030383;28;20488;-70
2022/07/25 04:38:37;;;;;;;8.67;7.00;;;18.20;99.90;;;;;;5030491;28;20468;-70
2022/07/25 04:41:04;;;;;;;7.70;7.00;;;18.10;99.90;;;;;;5030084;28;20533;-70
2022/07/25 04:43:31;;;;;;;8.20;7.27;;;18.20;99.90;;;;;;5030721;28;20979;-70
2022/07/25 04:45:58;;;;;;;7.57;6.87;;;18.20;99.90;;;;;;5030598;28;20851;-70
2022/07/25 04:48:26;;;;;;;7.87;7.10;;;18.30;99.90;;;;;;5030376;28;20858;-70
2022/07/25 04:50:53;;;;;;;8.47;7.67;;;18.20;99.90;;;;;;5084642;22;20499;-92
2022/07/25 04:53:20;;;;;;;7.70;6.57;;;18.30;99.90;;;;;;5053637;28;20463;-92
2022/07/25 04:55:47;;;;;;;8.43;7.40;;;18.30;99.90;;;;;;5053796;28;20452;-92
2022/07/25 04:58:13;;;;;;;8.00;7.20;;;18.40;99.90;;;;;;5059737;22;21152;-73
2022/07/25 05:00:40;;;;;;;9.93;7.73;;;18.40;99.90;;;;;;5049811;28;20460;-72
2022/07/25 05:03:07;;;;;;;8.37;7.10;;;18.40;99.90;;;;;;5050439;28;20455;-72
2022/07/25 05:05:35;;;;;;;12.27;8.07;;;18.50;99.90;;;;;;5050697;28;20897;-72
2022/07/25 05:08:01;;;;;;;7.80;7.00;;;18.60;99.90;;;;;;5048972;28;21023;-72
2022/07/25 05:10:29;;;;;;;8.80;7.00;;;18.60;99.90;;;;;;5020615;28;20480;-72
2022/07/25 05:12:56;;;;;;;7.70;6.90;;;18.60;99.90;;;;;;5021531;28;20944;-72
2022/07/25 05:15:23;;;;;;;9.03;7.70;;;18.70;99.90;;;;;;5020443;28;20842;-73
2022/07/25 05:17:50;;;;;;;6.97;6.27;;;18.80;99.90;;;;;;5015093;28;20464;-72
2022/07/25 05:20:17;;;;;;;10.83;7.20;;;18.90;99.90;;;;;;5011434;28;20548;-73
2022/07/25 05:22:45;;;;;;;7.70;7.00;;;19.00;99.90;;;;;;5011059;28;20818;-72
2022/07/25 05:25:13;;;;;;;7.37;6.67;;;19.00;99.90;;;;;;5010955;28;20481;-72
2022/07/25 05:27:40;;;;;;;9.60;7.07;;;19.10;99.90;;;;;;5010997;28;20464;-73
2022/07/25 05:30:09;;;;;;;7.33;6.63;;;19.20;99.90;;;;;;5010298;28;20486;-72
2022/07/25 05:32:35;;;;;;;7.80;6.80;;;19.30;99.90;;;;;;5010719;28;20910;-73
2022/07/25 05:35:02;;;;;;;8.27;7.33;;;19.50;99.90;;;;;;5013599;28;20969;-72
2022/07/25 05:37:29;;;;;;;7.57;6.87;;;19.70;99.90;;;;;;5014701;28;20470;-72
2022/07/25 05:39:57;;;;;;;8.97;7.30;;;19.90;99.90;;;;;;5014208;28;20462;-72
2022/07/25 05:42:24;;;;;;;6.93;6.20;;;20.10;99.90;;;;;;5015040;28;20457;-72
2022/07/25 05:44:50;;;;;;;8.93;7.30;;;20.30;99.90;;;;;;5014385;28;20465;-72
2022/07/25 05:47:17;;;;;;;7.20;6.50;;;20.50;99.90;;;;;;5014867;28;20962;-72
2022/07/25 05:49:44;;;;;;;6.80;6.10;;;20.70;99.90;;;;;;5013917;28;20479;-72
2022/07/25 05:52:11;;;;;;;8.50;7.00;;;20.80;99.90;;;;;;5014634;28;20583;-72
2022/07/25 05:54:37;;;;;;;6.63;6.03;;;20.90;99.90;;;;;;5014502;28;20466;-72
2022/07/25 05:57:05;;;;;;;7.60;6.77;;;21.00;99.90;;;;;;5014203;28;20504;-72
2022/07/25 05:59:32;;;;;;;6.93;6.23;;;21.10;99.90;;;;;;5013678;28;20465;-72
2022/07/25 06:02:01;;;;;;;7.20;6.37;;;21.20;99.90;;;;;;5014278;28;21222;-72
2022/07/25 06:04:27;;;;;;;7.10;6.40;;;21.30;99.90;;;;;;5014249;28;20864;-72
2022/07/25 06:06:54;;;;;;;7.20;6.50;;;21.50;99.90;;;;;;5014160;28;20489;-72
2022/07/25 06:09:22;;;;;;;7.23;6.50;;;21.70;99.90;;;;;;5013664;28;20486;-72
2022/07/25 06:11:48;;;;;;;8.60;6.63;;;21.80;99.90;;;;;;5013905;28;20466;-72
2022/07/25 06:14:16;;;;;;;6.37;5.77;;;22.00;99.90;;;;;;5014057;28;20960;-72
2022/07/25 06:16:43;;;;;;;7.20;6.30;;;22.20;99.90;;;;;;5013940;28;20860;-72
2022/07/25 06:19:10;;;;;;;7.93;6.03;;;22.30;99.90;;;;;;5013523;28;20458;-72
2022/07/25 06:21:37;;;;;;;7.50;6.80;;;22.40;99.90;;;;;;5013995;28;20464;-72
2022/07/25 06:24:04;;;;;;;6.83;6.23;;;22.40;99.90;;;;;;5013738;28;20837;-72
2022/07/25 06:26:31;;;;;;;7.80;5.83;;;22.50;99.90;;;;;;5013634;28;20491;-72
2022/07/25 06:28:57;;;;;;;7.50;6.70;;;22.60;99.90;;;;;;5013537;28;20510;-73
2022/07/25 06:31:25;;;;;;;7.33;6.60;;;22.70;99.90;;;;;;5013286;28;20463;-72
2022/07/25 06:33:52;;;;;;;7.10;6.50;;;22.80;99.90;;;;;;5013507;28;20826;-72
2022/07/25 06:36:19;;;;;;;6.60;6.00;;;22.80;99.90;;;;;;5013648;28;20503;-72
2022/07/25 06:38:45;;;;;;;6.97;6.27;;;22.90;99.90;;;;;;5013487;28;20464;-72
2022/07/25 06:41:15;;;;;;;7.00;6.40;;;23.00;99.90;;;;;;5012843;28;20961;-73
2022/07/25 06:43:42;;;;;;;6.67;6.00;;;23.10;99.90;;;;;;5013922;28;20500;-73
2022/07/25 06:46:08;;;;;;;6.80;5.80;;;23.30;99.90;;;;;;5028244;28;20484;-73
2022/07/25 06:48:37;;;;;;;7.63;6.30;;;23.30;99.90;;;;;;5052557;28;20469;-73
2022/07/25 06:51:05;;;;;;;7.23;6.53;;;23.40;99.90;;;;;;5052708;28;20458;-69
2022/07/25 06:53:32;;;;;;;7.40;6.70;;;23.40;99.90;;;;;;5053692;28;20575;-70
2022/07/25 06:56:00;;;;;;;6.70;6.10;;;23.50;99.90;;;;;;5053388;28;20480;-70
2022/07/25 06:58:27;;;;;;;7.97;7.17;;;23.60;99.90;;;;;;5053551;28;20470;-71
2022/07/25 07:00:55;;;;;;;6.73;6.10;;;23.70;99.90;;;;;;5052077;28;20514;-71
2022/07/25 07:03:22;;;;;;;6.50;5.90;;;23.80;99.90;;;;;;5052078;28;20517;-71
2022/07/25 07:05:51;;;;;;;5.93;5.43;;;23.90;99.90;;;;;;5049127;28;20486;-71
2022/07/25 07:08:18;;;;;;;6.50;5.90;;;24.00;99.90;;;;;;5049620;28;20805;-71
2022/07/25 07:10:45;;;;;;;7.03;6.43;;;24.10;99.90;;;;;;5048798;28;20513;-71
2022/07/25 07:13:17;;;;;;;7.37;6.63;;;24.30;99.90;;;;;;5047297;28;20466;-72
2022/07/25 07:15:48;;;;;;;6.90;6.20;;;24.30;99.90;;;;;;5049616;28;20992;-72
2022/07/25 07:18:15;;;;;;;7.63;6.93;;;24.30;99.90;;;;;;5049101;28;20462;-71
2022/07/25 07:20:43;;;;;;;7.17;6.47;;;24.40;99.90;;;;;;5050300;28;20883;-71
2022/07/25 07:23:12;;;;;;;7.60;6.90;;;24.60;99.90;;;;;;5050804;28;20466;-71
2022/07/25 07:25:39;;;;;;;7.63;6.80;;;24.70;99.90;;;;;;5050659;28;20856;-71
2022/07/25 07:28:07;;;;;;;7.87;7.17;;;24.90;99.90;;;;;;5047526;28;20954;-72
2022/07/25 07:30:34;;;;;;;7.10;6.50;;;25.10;99.90;;;;;;5051182;28;20483;-72
2022/07/25 07:33:01;;;;;;;7.27;6.63;;;25.20;99.90;;;;;;5051815;28;20460;-73
2022/07/25 07:35:28;;;;;;;8.00;7.30;;;25.20;99.90;;;;;;5051383;28;20487;-72
2022/07/25 07:37:55;;;;;;;7.77;7.07;;;25.30;99.90;;;;;;5051373;28;20457;-73
2022/07/25 07:40:25;;;;;;;8.67;7.87;;;25.40;99.90;;;;;;5050843;28;20459;-73
2022/07/25 07:42:52;;;;;;;7.60;6.10;;;25.40;99.90;;;;;;5051780;28;20878;-73
2022/07/25 07:45:21;;;;;;;9.10;7.80;;;25.50;99.90;;;;;;5051254;28;21092;-73
2022/07/25 07:47:49;;;;;;;7.83;7.13;;;25.60;99.90;;;;;;5051220;28;20466;-73
2022/07/25 07:50:17;;;;;;;7.87;7.17;;;25.70;99.90;;;;;;5050776;28;20488;-73
2022/07/25 07:52:44;;;;;;;7.73;7.03;;;25.90;99.90;;;;;;5051092;28;20462;-73
2022/07/25 07:57:59;;;;;;;7.97;7.17;;;26.00;99.90;;;;;;5050120;28;21061;-73
2022/07/25 08:00:29;;;;;;;7.90;6.90;;;26.20;99.90;;;;;;5050907;28;20484;-73
2022/07/25 08:02:56;;;;;;;7.60;7.00;;;26.30;99.90;;;;;;5051096;28;20456;-73
2022/07/25 08:05:25;;;;;;;7.30;6.60;;;26.50;99.90;;;;;;5051377;28;20698;-72
2022/07/25 08:07:53;;;;;;;8.30;6.90;;;26.70;99.90;;;;;;5050823;28;20463;-73
2022/07/25 08:10:21;;;;;;;7.83;7.00;;;26.80;99.90;;;;;;5050410;28;20480;-72
2022/07/25 08:12:48;;;;;;;7.33;6.73;;;26.80;99.90;;;;;;5051154;28;20463;-72
2022/07/25 08:15:17;;;;;;;7.27;6.57;;;27.00;99.90;;;;;;5050614;28;20952;-73
2022/07/25 08:17:45;;;;;;;7.10;6.40;;;27.00;99.90;;;;;;5050914;28;20904;-72
2022/07/25 08:20:12;;;;;;;6.20;5.60;;;27.10;99.90;;;;;;5050123;28;20463;-73
2022/07/25 08:22:40;;;;;;;6.20;5.60;;;27.30;99.90;;;;;;5050825;28;20470;-72
2022/07/25 08:25:09;;;;;;;6.90;6.30;;;27.40;99.90;;;;;;5050817;28;20492;-73
2022/07/25 08:27:36;;;;;;;5.80;5.30;;;27.50;99.90;;;;;;5050951;28;20842;-72
2022/07/25 08:30:03;;;;;;;7.93;6.37;;;27.70;99.90;;;;;;5044308;28;20264;-73
2022/07/25 08:32:32;;;;;;;6.80;6.20;;;27.90;99.90;;;;;;5035159;28;20467;-70
2022/07/25 08:35:00;;;;;;;6.80;6.20;;;28.00;99.90;;;;;;5049129;28;20467;-71
2022/07/25 08:37:28;;;;;;;6.60;6.00;;;28.10;99.90;;;;;;5049500;28;20849;-72
2022/07/25 08:39:56;;;;;;;6.83;6.13;;;28.10;99.90;;;;;;5048833;28;20460;-71
2022/07/25 08:42:22;;;;;;;7.27;6.57;;;28.30;99.90;;;;;;5049739;28;20499;-74
2022/07/25 08:44:56;;;;;;;7.60;6.13;;;28.30;99.90;;;;;;5048818;28;20982;-70
2022/07/25 08:47:24;;;;;;;6.07;5.57;;;28.20;99.90;;;;;;5049536;28;20829;-70
2022/07/25 08:49:53;;;;;;;7.50;6.80;;;28.30;99.90;;;;;;5048634;28;20538;-71
2022/07/25 08:52:20;;;;;;;6.97;6.27;;;28.50;99.90;;;;;;5049473;28;20512;-70
2022/07/25 08:54:48;;;;;;;6.43;5.83;;;28.70;99.90;;;;;;5049052;28;20464;-71
2022/07/25 08:57:16;;;;;;;5.90;5.40;;;28.80;99.40;;;;;;5048730;28;20475;-71
2022/07/25 08:59:44;;;;;;;6.70;6.10;;;28.90;99.30;;;;;;5048630;28;20474;-71
2022/07/25 09:02:13;;;;;;;6.47;5.90;;;29.00;99.80;;;;;;5048978;28;20798;-71
2022/07/25 09:04:42;;;;;;;5.50;5.00;;;29.00;99.90;;;;;;5049607;28;20470;-71
2022/07/25 09:07:10;;;;;;;6.10;5.57;;;29.00;99.90;;;;;;5048058;28;20476;-71
2022/07/25 09:09:39;;;;;;;6.27;5.67;;;29.20;99.80;;;;;;5051261;28;21082;-72
2022/07/25 09:12:08;;;;;;;5.43;4.93;;;29.30;99.90;;;;;;5052982;28;20495;-71
2022/07/25 09:14:42;;;;;;;6.73;6.03;;;29.30;98.00;;;;;;5053343;28;20467;-71
2022/07/25 09:17:10;;;;;;;5.90;5.40;;;29.40;98.80;;;;;;5052853;28;20723;-71
2022/07/25 09:19:37;;;;;;;5.97;5.30;;;29.40;98.20;;;;;;5052351;28;20464;-71
2022/07/25 09:22:06;;;;;;;6.20;5.70;;;29.50;97.80;;;;;;5053067;28;20468;-71
2022/07/25 09:24:35;;;;;;;6.80;6.10;;;29.60;98.20;;;;;;5053240;28;20460;-71
2022/07/25 09:27:09;;;;;;;6.77;6.17;;;29.60;98.60;;;;;;5052650;28;20484;-71
2022/07/25 09:29:41;;;;;;;6.20;5.60;;;29.70;98.30;;;;;;5052632;28;20484;-71
2022/07/25 09:32:16;;;;;;;6.60;5.97;;;29.90;98.50;;;;;;5053276;28;20470;-71
2022/07/25 09:34:45;;;;;;;5.80;5.30;;;30.00;97.00;;;;;;5053251;28;20468;-72
2022/07/25 09:37:15;;;;;;;6.60;6.00;;;30.20;97.90;;;;;;5052343;28;20678;-71
2022/07/25 09:39:46;;;;;;;6.37;5.77;;;30.20;98.70;;;;;;5052051;28;20490;-71
2022/07/25 09:42:23;;;;;;;7.03;6.40;;;30.40;98.30;;;;;;5052472;28;20773;-71
2022/07/25 09:45:01;;;;;;;7.20;6.50;;;30.50;99.00;;;;;;5052565;28;20542;-71
2022/07/25 09:47:30;;;;;;;6.00;5.40;;;30.60;96.80;;;;;;5052062;28;20999;-70
2022/07/25 09:49:58;;;;;;;6.40;5.80;;;30.60;97.60;;;;;;5051616;28;20484;-70
2022/07/25 09:52:25;;;;;;;7.37;6.57;;;30.70;97.10;;;;;;5052512;28;20475;-71
2022/07/25 09:54:56;;;;;;;7.57;6.13;;;30.80;97.10;;;;;;5052346;28;20896;-71
2022/07/25 09:57:24;;;;;;;6.27;5.67;;;30.90;97.50;;;;;;5052350;28;20963;-71
2022/07/25 09:59:52;;;;;;;6.43;5.83;;;30.90;98.30;;;;;;5051806;28;20816;-71
2022/07/25 10:02:33;;;;;;;6.10;5.53;;;31.00;98.00;;;;;;5052598;28;20456;-71
2022/07/25 10:05:12;;;;;;;6.50;5.90;;;31.20;96.50;;;;;;5051861;28;20463;-71
2022/07/25 10:07:42;;;;;;;6.47;5.87;;;31.30;97.80;;;;;;5051960;28;20463;-72
2022/07/25 10:10:22;;;;;;;6.60;6.00;;;31.50;97.60;;;;;;5051072;28;21040;-71
2022/07/25 10:13:03;;;;;;;6.93;6.40;;;31.50;98.00;;;;;;5051883;28;20471;-73
2022/07/25 10:15:41;;;;;;;5.83;5.33;;;31.60;97.40;;;;;;5012732;28;20515;-72
2022/07/25 10:18:08;;;;;;;6.33;5.83;;;31.70;97.20;;;;;;5012009;28;21048;-72
2022/07/25 10:20:36;;;;;;;6.80;6.10;;;31.80;96.40;;;;;;5011679;28;20454;-72
2022/07/25 10:23:04;;;;;;;6.70;5.57;;;31.80;96.10;;;;;;5011981;28;20880;-71
2022/07/25 10:25:33;;;;;;;6.30;5.50;;;31.90;96.20;;;;;;5012509;28;20985;-72
2022/07/25 10:28:08;;;;;;;6.57;5.93;;;32.00;96.30;;;;;;5025600;28;20484;-72
2022/07/25 10:30:38;;;;;;;5.97;5.40;;;32.10;96.50;;;;;;5051605;28;20483;-71
2022/07/25 10:33:11;;;;;;;5.90;5.40;;;32.20;95.30;;;;;;5051661;28;20460;-71
2022/07/25 10:35:38;;;;;;;5.07;4.67;;;32.30;91.50;;;;;;5051714;28;21035;-71
2022/07/25 10:38:06;;;;;;;5.80;5.30;;;32.30;92.90;;;;;;5050900;28;20468;-72
2022/07/25 10:40:37;;;;;;;6.17;5.63;;;32.30;90.30;;;;;;5051151;28;20502;-72
2022/07/25 10:43:08;;;;;;;5.30;4.90;;;32.40;92.40;;;;;;5051606;28;20460;-72
2022/07/25 10:45:41;;;;;;;4.90;4.50;;;32.50;93.40;;;;;;5050632;28;20488;-71
2022/07/25 10:48:09;;;;;;;5.30;4.90;;;32.70;93.10;;;;;;5051776;28;20468;-72
2022/07/25 10:50:47;;;;;;;5.73;5.23;;;32.90;94.00;;;;;;5051450;28;20479;-72
2022/07/25 10:53:13;;;;;;;4.70;4.30;;;32.90;92.20;;;;;;5019591;28;20548;-71
2022/07/25 10:55:43;;;;;;;3.80;3.50;;;33.00;91.10;;;;;;5012190;28;20854;-72
2022/07/25 10:58:10;;;;;;;3.60;3.30;;;33.20;90.50;;;;;;5011754;28;20477;-72
2022/07/25 11:00:43;;;;;;;3.40;3.10;;;33.30;90.30;;;;;;5011921;28;20465;-71
2022/07/25 11:03:10;;;;;;;3.90;3.60;;;33.30;89.60;;;;;;5011414;28;20593;-71
2022/07/25 11:05:45;;;;;;;3.97;3.57;;;33.50;85.70;;;;;;5011612;28;20478;-71
2022/07/25 11:08:11;;;;;;;3.50;3.20;;;33.60;87.20;;;;;;5011074;28;20768;-71
2022/07/25 11:10:38;;;;;;;5.30;3.90;;;33.60;86.90;;;;;;5011309;28;20580;-71
2022/07/25 11:13:11;;;;;;;4.10;3.80;;;33.70;86.20;;;;;;5011269;28;20836;-71
2022/07/25 11:15:38;;;;;;;3.87;3.57;;;33.80;89.20;;;;;;5011375;28;20936;-71
2022/07/25 11:18:05;;;;;;;3.50;3.20;;;33.80;86.30;;;;;;5010662;28;20511;-71
2022/07/25 11:20:32;;;;;;;3.23;3.03;;;33.90;89.50;;;;;;5010824;28;20520;-71
2022/07/25 11:22:58;;;;;;;4.20;3.80;;;34.00;86.10;;;;;;5011335;28;20496;-71
2022/07/25 11:25:25;;;;;;;3.50;3.20;;;34.00;85.20;;;;;;5011261;28;20486;-72
2022/07/25 11:27:57;;;;;;;3.53;3.23;;;34.00;83.90;;;;;;5010687;28;21011;-71
2022/07/25 11:30:26;;;;;;;3.97;3.20;;;34.20;83.00;;;;;;5011035;28;20482;-71
2022/07/25 11:32:56;;;;;;;3.63;3.33;;;34.30;86.10;;;;;;5010270;28;20887;-71
2022/07/25 11:35:25;;;;;;;3.63;3.33;;;34.50;85.60;;;;;;5011189;28;20489;-71
2022/07/25 11:37:53;;;;;;;4.10;3.70;;;34.60;83.00;;;;;;5010463;28;20736;-71
2022/07/25 11:40:21;;;;;;;3.93;3.57;;;34.70;82.10;;;;;;5010436;28;20946;-71
2022/07/25 11:42:49;;;;;;;3.70;3.40;;;34.70;81.30;;;;;;5010645;28;20827;-71
2022/07/25 11:45:17;;;;;;;4.67;3.77;;;34.80;79.20;;;;;;5010818;28;20486;-71
2022/07/25 11:47:47;;;;;;;4.00;3.60;;;34.90;82.50;;;;;;5010867;28;20493;-71
2022/07/25 11:50:14;;;;;;;3.90;3.60;;;34.90;82.10;;;;;;5010160;28;20473;-71
2022/07/25 11:52:42;;;;;;;4.97;3.50;;;34.90;82.10;;;;;;5010898;28;20740;-72
2022/07/25 11:55:11;;;;;;;3.97;3.67;;;34.90;83.00;;;;;;5010212;28;20493;-72
2022/07/25 11:57:40;;;;;;;4.37;3.97;;;34.90;81.90;;;;;;5010960;28;20470;-71
2022/07/25 12:00:14;;;;;;;3.80;3.50;;;34.90;79.70;;;;;;5009798;28;20474;-71
2022/07/25 12:02:41;;;;;;;3.77;3.43;;;34.90;79.10;;;;;;5010765;28;20952;-71
2022/07/25 12:05:11;;;;;;;3.60;3.20;;;34.70;77.00;;;;;;5010393;28;20973;-71
2022/07/25 12:07:40;;;;;;;3.83;3.53;;;34.40;79.50;;;;;;5010236;28;20466;-71
2022/07/25 12:10:09;;;;;;;4.70;4.30;;;34.30;81.30;;;;;;5009527;28;20465;-71
2022/07/25 12:12:44;;;;;;;4.13;3.83;;;34.20;76.60;;;;;;5010405;28;20457;-71
2022/07/25 12:15:12;;;;;;;4.60;4.20;;;34.10;79.40;;;;;;5010094;28;20523;-71
2022/07/25 12:17:39;;;;;;;4.53;4.00;;;34.00;79.40;;;;;;5010258;28;20463;-72
2022/07/25 12:20:14;;;;;;;4.60;4.17;;;34.00;81.30;;;;;;5009518;28;20465;-71
2022/07/25 12:22:42;;;;;;;4.43;4.00;;;33.80;81.10;;;;;;5010503;28;20452;-71
2022/07/25 12:25:11;;;;;;;4.50;4.20;;;33.70;80.30;;;;;;5009780;28;20488;-71
2022/07/25 12:27:38;;;;;;;7.40;3.97;;;33.70;79.50;;;;;;5010147;28;20473;-71
2022/07/25 12:30:06;;;;;;;4.23;3.73;;;33.90;84.10;;;;;;5009002;28;20872;-71
2022/07/25 12:32:33;;;;;;;4.57;4.17;;;34.10;82.50;;;;;;5010211;28;20493;-71
2022/07/25 12:35:00;;;;;;;4.00;3.70;;;34.00;81.30;;;;;;5009871;28;20461;-71
2022/07/25 12:37:28;;;;;;;4.10;3.73;;;34.20;82.80;;;;;;5009833;28;20466;-71
2022/07/25 12:39:55;;;;;;;3.53;3.23;;;34.30;78.70;;;;;;5009151;28;20465;-72
2022/07/25 12:42:21;;;;;;;3.93;3.63;;;34.40;76.60;;;;;;5009962;28;20465;-71
2022/07/25 12:44:48;;;;;;;4.10;3.80;;;34.40;76.30;;;;;;5010067;28;20465;-71
2022/07/25 12:47:15;;;;;;;4.77;4.37;;;34.20;77.10;;;;;;5009741;28;20844;-71
2022/07/25 12:49:42;;;;;;;4.03;3.73;;;34.10;79.70;;;;;;5009290;28;20814;-72
2022/07/25 12:52:08;;;;;;;3.80;3.50;;;33.90;80.30;;;;;;5009803;28;20493;-71